createdAt,value
2022-08-19T00:01:30.171Z,81.63
2022-08-19T00:03:59.128Z,81.40
2022-08-19T00:06:27.540Z,83.19
2022-08-19T00:08:55.517Z,83.18
2022-08-19T00:11:25.800Z,84.06
2022-08-19T00:13:54.302Z,84.38
2022-08-19T00:16:27.013Z,84.71
2022-08-19T00:18:56.376Z,84.40
2022-08-19T00:21:24.643Z,85.27
2022-08-19T00:23:52.622Z,85.25
2022-08-19T00:26:20.822Z,85.87
2022-08-19T00:28:48.786Z,86.54
2022-08-19T00:31:17.430Z,86.95
2022-08-19T00:33:49.317Z,86.91
2022-08-19T00:36:17.372Z,86.39
2022-08-19T00:38:45.397Z,86.52
2022-08-19T00:41:17.145Z,86.53
2022-08-19T00:43:45.712Z,86.91
2022-08-19T00:46:13.936Z,87.02
2022-08-19T00:48:41.936Z,86.32
2022-08-19T00:51:11.641Z,86.31
2022-08-19T00:53:40.713Z,86.78
2022-08-19T00:56:09.848Z,87.08
2022-08-19T00:58:38.490Z,87.20
2022-08-19T01:01:08.809Z,86.97
2022-08-19T01:03:40.301Z,87.54
2022-08-19T01:06:26.603Z,87.45
2022-08-19T01:08:55.528Z,86.90
2022-08-19T01:11:23.487Z,86.97
2022-08-19T01:13:53.546Z,86.34
2022-08-19T01:16:23.765Z,86.72
2022-08-19T01:18:52.397Z,86.88
2022-08-19T01:21:28.669Z,86.97
2022-08-19T01:23:58.112Z,86.48
2022-08-19T01:26:27.362Z,86.61
2022-08-19T01:29:00.763Z,86.62
2022-08-19T01:31:32.481Z,86.74
2022-08-19T01:34:02.209Z,87.25
2022-08-19T01:36:33.608Z,87.20
2022-08-19T01:39:07.131Z,87.41
2022-08-19T01:41:35.593Z,87.94
2022-08-19T01:44:17.774Z,88.29
2022-08-19T01:46:49.196Z,87.51
2022-08-19T01:49:18.936Z,87.44
2022-08-19T01:51:47.133Z,87.21
2022-08-19T01:54:27.324Z,87.72
2022-08-19T01:57:02.981Z,87.16
2022-08-19T01:59:32.309Z,87.92
2022-08-19T02:02:00.171Z,87.39
2022-08-19T02:04:28.344Z,87.72
2022-08-19T02:06:56.182Z,87.66
2022-08-19T02:09:25.466Z,87.30
2022-08-19T02:11:54.498Z,87.80
2022-08-19T02:14:22.349Z,87.48
2022-08-19T02:16:50.252Z,87.73
2022-08-19T02:19:18.467Z,87.54
2022-08-19T02:21:46.468Z,87.67
2022-08-19T02:24:14.444Z,87.66
2022-08-19T02:26:43.869Z,88.59
2022-08-19T02:29:11.779Z,88.25
2022-08-19T02:31:39.716Z,89.53
2022-08-19T02:34:07.772Z,90.01
2022-08-19T02:36:35.844Z,89.53
2022-08-19T02:39:03.003Z,89.75
2022-08-19T02:41:34.232Z,90.09
2022-08-19T02:44:30.665Z,89.90
2022-08-19T02:46:53.402Z,90.15
2022-08-19T02:49:21.814Z,90.82
2022-08-19T02:51:50.055Z,90.76
2022-08-19T02:54:18.390Z,91.26
2022-08-19T02:56:47.372Z,92.00
2022-08-19T02:59:16.584Z,92.43
2022-08-19T03:01:44.725Z,92.86
2022-08-19T03:04:16.595Z,92.34
2022-08-19T03:06:48.610Z,93.26
2022-08-19T03:09:16.887Z,93.56
2022-08-19T03:11:45.271Z,93.85
2022-08-19T03:14:14.148Z,94.58
2022-08-19T03:16:49.296Z,94.60
2022-08-19T03:19:19.752Z,93.98
2022-08-19T03:21:48.196Z,93.51
2022-08-19T03:24:18.313Z,94.14
2022-08-19T03:26:48.730Z,93.77
2022-08-19T03:29:18.279Z,94.06
2022-08-19T03:32:01.645Z,94.93
2022-08-19T03:34:31.686Z,95.00
2022-08-19T03:37:04.948Z,95.33
2022-08-19T03:39:33.017Z,95.80
2022-08-19T03:42:38.082Z,95.14
2022-08-19T03:44:50.211Z,95.48
2022-08-19T03:47:19.590Z,95.13
2022-08-19T03:49:47.527Z,94.58
2022-08-19T03:52:15.479Z,94.71
2022-08-19T03:54:44.449Z,94.40
2022-08-19T03:57:12.591Z,94.06
2022-08-19T03:59:41.401Z,93.74
2022-08-19T04:02:11.419Z,93.68
2022-08-19T04:04:43.672Z,93.43
2022-08-19T04:07:13.901Z,93.63
2022-08-19T04:09:41.820Z,94.41
2022-08-19T04:12:11.088Z,93.83
2022-08-19T04:14:38.950Z,93.63
2022-08-19T04:17:06.900Z,93.42
2022-08-19T04:19:35.718Z,93.17
2022-08-19T04:22:06.034Z,94.18
2022-08-19T04:24:34.010Z,94.28
2022-08-19T04:27:02.509Z,93.95
2022-08-19T04:29:31.401Z,94.06
2022-08-19T04:32:08.408Z,94.05
2022-08-19T04:35:15.779Z,93.95
2022-08-19T04:37:31.846Z,94.08
2022-08-19T04:40:20.599Z,93.50
2022-08-19T04:42:48.752Z,93.08
2022-08-19T04:45:17.450Z,93.11
2022-08-19T04:47:49.212Z,93.17
2022-08-19T04:50:26.340Z,92.91
2022-08-19T04:52:57.272Z,92.82
2022-08-19T04:55:27.486Z,93.02
2022-08-19T04:57:56.685Z,93.20
2022-08-19T05:00:24.730Z,93.45
2022-08-19T05:02:52.824Z,93.76
2022-08-19T05:05:22.027Z,94.96
2022-08-19T05:07:50.106Z,94.29
2022-08-19T05:10:19.863Z,94.62
2022-08-19T05:12:47.978Z,95.22
2022-08-19T05:15:16.024Z,94.40
2022-08-19T05:18:04.349Z,94.16
2022-08-19T05:20:49.910Z,93.89
2022-08-19T05:23:20.505Z,93.24
2022-08-19T05:25:52.700Z,92.55
2022-08-19T05:28:21.398Z,93.13
2022-08-19T05:30:51.773Z,93.09
2022-08-19T05:33:20.068Z,93.46
2022-08-19T05:35:49.498Z,93.49
2022-08-19T05:38:18.024Z,94.67
2022-08-19T05:40:49.972Z,94.25
2022-08-19T05:43:19.412Z,93.44
2022-08-19T05:45:47.735Z,93.73
2022-08-19T05:48:16.220Z,92.60
2022-08-19T05:50:46.357Z,93.48
2022-08-19T05:53:15.604Z,93.36
2022-08-19T05:55:43.708Z,93.12
2022-08-19T05:58:12.262Z,93.26
2022-08-19T06:00:42.324Z,92.95
2022-08-19T06:03:12.453Z,95.21
2022-08-19T06:05:46.212Z,94.20
2022-08-19T06:08:19.698Z,93.56
2022-08-19T06:10:47.691Z,93.59
2022-08-19T06:13:15.905Z,93.54
2022-08-19T06:15:47.542Z,93.49
2022-08-19T06:18:16.682Z,92.82
2022-08-19T06:20:57.946Z,93.13
2022-08-19T06:23:26.763Z,93.36
2022-08-19T06:25:54.688Z,94.09
2022-08-19T06:28:24.705Z,92.59
2022-08-19T06:30:54.137Z,91.71
2022-08-19T06:33:22.057Z,91.90
2022-08-19T06:35:49.989Z,91.54
2022-08-19T06:38:17.980Z,91.06
2022-08-19T06:40:45.896Z,91.65
2022-08-19T06:43:16.927Z,91.11
2022-08-19T06:45:47.787Z,91.01
2022-08-19T06:48:17.119Z,90.62
2022-08-19T06:50:46.296Z,89.73
2022-08-19T06:53:14.756Z,90.38
2022-08-19T06:55:42.779Z,90.47
2022-08-19T06:58:10.791Z,89.87
2022-08-19T07:00:39.835Z,90.27
2022-08-19T07:03:08.963Z,90.54
2022-08-19T07:05:45.719Z,89.47
2022-08-19T07:08:14.608Z,89.73
2022-08-19T07:10:46.127Z,90.15
2022-08-19T07:13:14.240Z,90.26
2022-08-19T07:15:42.415Z,89.68
2022-08-19T07:18:11.933Z,89.43
2022-08-19T07:20:42.731Z,89.35
2022-08-19T07:23:16.179Z,88.50
2022-08-19T07:25:45.229Z,87.43
2022-08-19T07:28:24.380Z,87.05
2022-08-19T07:30:53.522Z,87.60
2022-08-19T07:33:21.749Z,87.12
2022-08-19T07:35:51.232Z,86.17
2022-08-19T07:38:19.607Z,86.64
2022-08-19T07:40:48.068Z,87.01
2022-08-19T07:43:17.996Z,87.58
2022-08-19T07:45:48.192Z,88.65
2022-08-19T07:48:16.558Z,88.00
2022-08-19T07:50:44.646Z,87.71
2022-08-19T07:53:14.326Z,87.43
2022-08-19T07:55:43.917Z,87.20
2022-08-19T07:58:14.442Z,86.67
2022-08-19T08:00:43.265Z,86.80
2022-08-19T08:03:11.357Z,87.56
2022-08-19T08:05:56.837Z,86.88
2022-08-19T08:08:47.962Z,87.09
2022-08-19T08:11:17.674Z,86.83
2022-08-19T08:14:00.475Z,87.30
2022-08-19T08:16:31.064Z,86.14
2022-08-19T08:18:59.276Z,87.08
2022-08-19T08:21:27.417Z,86.94
2022-08-19T08:23:57.327Z,86.93
2022-08-19T08:26:26.006Z,86.85
2022-08-19T08:28:54.017Z,86.99
2022-08-19T08:31:22.154Z,86.97
2022-08-19T08:33:50.166Z,86.66
2022-08-19T08:36:18.375Z,87.41
2022-08-19T08:38:47.669Z,87.37
2022-08-19T08:41:24.535Z,87.49
2022-08-19T08:43:56.519Z,87.38
2022-08-19T08:46:30.735Z,86.31
2022-08-19T08:49:08.445Z,86.16
2022-08-19T08:54:17.053Z,85.31
2022-08-19T08:56:48.066Z,85.86
2022-08-19T08:59:25.456Z,85.03
2022-08-19T09:01:53.498Z,84.87
2022-08-19T09:04:21.905Z,84.75
2022-08-19T09:06:57.187Z,83.70
2022-08-19T09:09:33.558Z,83.41
2022-08-19T09:12:13.797Z,83.19
2022-08-19T09:14:51.757Z,83.61
2022-08-19T09:17:32.203Z,83.51
2022-08-19T09:20:05.737Z,83.09
2022-08-19T09:22:38.208Z,83.59
2022-08-19T09:25:08.551Z,83.26
2022-08-19T09:27:43.056Z,83.57
2022-08-19T09:30:15.882Z,83.51
2022-08-19T09:32:45.121Z,84.67
2022-08-19T09:35:14.932Z,83.90
2022-08-19T09:37:43.697Z,83.91
2022-08-19T09:40:13.901Z,84.07
2022-08-19T09:42:50.334Z,83.67
2022-08-19T09:45:23.488Z,84.50
2022-08-19T09:47:54.313Z,83.90
2022-08-19T09:50:24.714Z,83.73
2022-08-19T09:52:57.207Z,84.26
2022-08-19T09:55:32.104Z,83.45
2022-08-19T09:58:03.367Z,83.83
2022-08-19T10:00:32.775Z,83.90
2022-08-19T10:03:00.980Z,83.48
2022-08-19T10:05:48.674Z,83.02
2022-08-19T10:08:18.771Z,82.89
2022-08-19T10:10:50.146Z,82.38
2022-08-19T10:13:26.506Z,83.61
2022-08-19T10:15:56.978Z,82.35
2022-08-19T10:18:26.559Z,83.25
2022-08-19T10:21:03.748Z,82.94
2022-08-19T10:23:33.771Z,82.21
2022-08-19T10:26:04.759Z,81.93
2022-08-19T10:28:34.713Z,80.91
2022-08-19T10:31:07.891Z,80.61
2022-08-19T10:33:53.052Z,81.04
2022-08-19T10:36:24.646Z,80.02
2022-08-19T10:38:56.859Z,80.43
2022-08-19T10:41:27.986Z,78.98
2022-08-19T10:44:04.464Z,79.18
2022-08-19T10:46:34.133Z,79.82
2022-08-19T10:49:03.541Z,80.34
2022-08-19T10:51:49.866Z,80.14
2022-08-19T10:54:31.075Z,80.13
2022-08-19T10:56:58.656Z,81.00
2022-08-19T10:59:35.298Z,80.96
2022-08-19T11:02:06.350Z,81.11
2022-08-19T11:04:34.513Z,80.82
2022-08-19T11:07:05.565Z,81.18
2022-08-19T11:09:34.630Z,80.85
2022-08-19T11:12:04.730Z,82.05
2022-08-19T11:14:35.611Z,81.58
2022-08-19T11:17:04.400Z,81.19
2022-08-19T11:19:32.989Z,81.04
2022-08-19T11:22:03.986Z,81.40
2022-08-19T11:24:33.783Z,80.50
2022-08-19T11:27:07.128Z,80.25
2022-08-19T11:29:37.220Z,80.07
2022-08-19T11:32:07.220Z,79.53
2022-08-19T11:34:36.379Z,79.51
2022-08-19T11:37:06.695Z,79.67
2022-08-19T11:39:36.497Z,78.37
2022-08-19T11:42:26.176Z,76.63
2022-08-19T11:44:56.108Z,74.39
2022-08-19T11:47:24.418Z,75.30
2022-08-19T11:49:52.444Z,74.90
2022-08-19T11:52:20.657Z,75.14
2022-08-19T11:54:49.075Z,75.26
2022-08-19T11:57:18.095Z,74.97
2022-08-19T11:59:50.875Z,74.99
2022-08-19T12:02:20.914Z,73.84
2022-08-19T12:04:49.044Z,74.03
2022-08-19T12:07:17.347Z,74.08
2022-08-19T12:09:45.945Z,74.07
2022-08-19T12:12:17.314Z,73.09
2022-08-19T12:14:45.494Z,73.13
2022-08-19T12:17:14.553Z,73.28
2022-08-19T12:19:43.789Z,72.57
2022-08-19T12:22:11.655Z,72.71
2022-08-19T12:24:39.685Z,72.56
2022-08-19T12:27:09.983Z,71.76
2022-08-19T12:29:41.034Z,70.44
2022-08-19T12:32:10.369Z,70.07
2022-08-19T12:34:40.571Z,69.81
2022-08-19T12:37:10.442Z,68.21
2022-08-19T12:39:40.991Z,67.72
2022-08-19T12:42:09.846Z,65.53
2022-08-19T12:44:38.489Z,66.46
2022-08-19T12:47:09.647Z,65.12
2022-08-19T12:49:53.261Z,66.26
2022-08-19T12:52:25.958Z,65.28
2022-08-19T12:54:55.309Z,64.67
2022-08-19T12:57:31.556Z,64.97
2022-08-19T13:00:04.911Z,64.98
2022-08-19T13:02:38.681Z,64.56
2022-08-19T13:05:10.336Z,65.27
2022-08-19T13:07:41.375Z,62.61
2022-08-19T13:10:12.921Z,61.67
2022-08-19T13:12:42.111Z,61.77
2022-08-19T13:15:11.629Z,62.18
2022-08-19T13:17:41.158Z,62.91
2022-08-19T13:20:11.196Z,63.77
2022-08-19T13:22:40.872Z,64.42
2022-08-19T13:25:10.425Z,64.54
2022-08-19T13:27:39.078Z,64.68
2022-08-19T13:30:28.805Z,64.48
2022-08-19T13:33:16.081Z,64.40
2022-08-19T13:35:47.328Z,65.16
2022-08-19T13:38:18.699Z,64.15
2022-08-19T13:40:47.472Z,65.19
2022-08-19T13:43:22.793Z,64.46
2022-08-19T13:45:53.763Z,64.35
2022-08-19T13:48:22.148Z,65.04
2022-08-19T13:50:50.464Z,64.58
2022-08-19T13:53:20.157Z,64.37
2022-08-19T13:55:48.372Z,64.21
2022-08-19T13:58:16.662Z,64.36
2022-08-19T14:00:46.811Z,63.71
2022-08-19T14:03:15.221Z,64.03
2022-08-19T14:05:43.137Z,64.40
2022-08-19T14:08:11.394Z,64.56
2022-08-19T14:10:42.009Z,64.04
2022-08-19T14:13:10.029Z,64.35
2022-08-19T14:15:38.237Z,64.41
2022-08-19T14:18:06.222Z,64.54
2022-08-19T14:20:36.191Z,65.53
2022-08-19T14:23:06.160Z,65.59
2022-08-19T14:25:35.081Z,66.10
2022-08-19T14:28:04.751Z,66.46
2022-08-19T14:30:35.185Z,66.34
2022-08-19T14:33:04.264Z,65.53
2022-08-19T14:35:35.790Z,65.97
2022-08-19T14:38:05.850Z,66.51
2022-08-19T14:40:34.316Z,66.41
2022-08-19T14:43:06.288Z,67.06
2022-08-19T14:45:36.601Z,66.60
2022-08-19T14:48:05.115Z,66.87
2022-08-19T14:50:33.887Z,66.44
2022-08-19T14:53:08.170Z,66.42
2022-08-19T14:55:44.119Z,67.35
2022-08-19T14:58:29.335Z,65.45
2022-08-19T15:01:00.226Z,65.96
2022-08-19T15:03:28.513Z,64.90
2022-08-19T15:05:58.508Z,65.03
2022-08-19T15:08:27.657Z,65.91
2022-08-19T15:10:57.564Z,65.33
2022-08-19T15:13:28.864Z,65.38
2022-08-19T15:15:58.068Z,64.76
2022-08-19T15:18:26.054Z,64.04
2022-08-19T15:20:54.277Z,63.32
2022-08-19T15:23:22.993Z,63.45
2022-08-19T15:25:54.492Z,64.18
2022-08-19T15:28:22.646Z,64.26
2022-08-19T15:30:52.408Z,64.44
2022-08-19T15:33:21.342Z,64.18
2022-08-19T15:35:50.962Z,63.87
2022-08-19T15:38:22.055Z,63.47
2022-08-19T15:40:51.412Z,63.77
2022-08-19T15:43:21.822Z,63.39
2022-08-19T15:45:51.241Z,63.63
2022-08-19T15:48:19.222Z,63.64
2022-08-19T15:50:47.195Z,62.96
2022-08-19T15:53:15.060Z,63.47
2022-08-19T15:55:45.462Z,63.41
2022-08-19T15:58:33.809Z,62.82
2022-08-19T16:01:24.240Z,62.26
2022-08-19T16:04:14.639Z,62.62
2022-08-19T16:06:46.540Z,62.83
2022-08-19T16:09:15.770Z,62.69
2022-08-19T16:11:45.923Z,62.30
2022-08-19T16:14:14.580Z,62.05
2022-08-19T16:16:47.293Z,61.74
2022-08-19T16:19:17.209Z,62.31
2022-08-19T16:21:46.200Z,61.61
2022-08-19T16:24:17.637Z,61.54
2022-08-19T16:26:46.618Z,61.66
2022-08-19T16:29:15.709Z,62.53
2022-08-19T16:32:04.996Z,61.96
2022-08-19T16:34:33.765Z,62.18
2022-08-19T16:37:02.519Z,62.63
2022-08-19T16:39:30.669Z,62.86
2022-08-19T16:41:59.054Z,62.90
2022-08-19T16:44:29.841Z,63.30
2022-08-19T16:46:59.751Z,63.25
2022-08-19T16:49:52.933Z,63.97
2022-08-19T16:52:19.164Z,64.70
2022-08-19T16:54:47.187Z,64.90
2022-08-19T16:57:16.128Z,64.37
2022-08-19T16:59:48.696Z,64.46
2022-08-19T17:02:17.990Z,64.23
2022-08-19T17:04:57.694Z,64.34
2022-08-19T17:07:27.367Z,64.67
2022-08-19T17:09:55.613Z,65.28
2022-08-19T17:12:30.638Z,66.15
2022-08-19T17:15:01.180Z,65.78
2022-08-19T17:17:29.776Z,66.25
2022-08-19T17:20:00.524Z,66.37
2022-08-19T17:22:28.700Z,66.59
2022-08-19T17:24:58.385Z,66.94
2022-08-19T17:27:31.476Z,67.28
2022-08-19T17:30:01.176Z,67.34
2022-08-19T17:32:29.141Z,67.18
2022-08-19T17:34:57.227Z,67.75
2022-08-19T17:37:26.543Z,67.64
2022-08-19T17:39:54.671Z,68.20
2022-08-19T17:42:22.789Z,68.18
2022-08-19T17:44:51.163Z,67.61
2022-08-19T17:47:21.236Z,67.90
2022-08-19T17:49:49.251Z,68.18
2022-08-19T17:52:17.568Z,68.92
2022-08-19T17:54:47.608Z,68.88
2022-08-19T17:57:15.705Z,68.77
2022-08-19T17:59:43.825Z,69.32
2022-08-19T18:02:12.659Z,69.49
2022-08-19T18:04:45.514Z,69.63
2022-08-19T18:07:21.710Z,69.62
2022-08-19T18:09:52.829Z,69.63
2022-08-19T18:12:26.552Z,69.57
2022-08-19T18:14:54.508Z,69.85
2022-08-19T18:17:23.461Z,69.49
2022-08-19T18:19:51.599Z,69.53
2022-08-19T18:22:26.695Z,69.33
2022-08-19T18:24:57.287Z,69.45
2022-08-19T18:27:25.880Z,68.89
2022-08-19T18:29:54.568Z,69.63
2022-08-19T18:32:24.241Z,69.91
2022-08-19T18:34:53.167Z,69.46
2022-08-19T18:37:21.869Z,69.68
2022-08-19T18:40:07.670Z,69.70
2022-08-19T18:42:54.526Z,70.06
2022-08-19T18:45:39.668Z,70.53
2022-08-19T18:48:29.361Z,70.86
2022-08-19T18:50:59.306Z,71.72
2022-08-19T18:53:30.283Z,71.68
2022-08-19T18:55:59.902Z,72.13
2022-08-19T18:58:34.196Z,72.49
2022-08-19T19:01:11.620Z,72.47
2022-08-19T19:03:42.545Z,72.76
2022-08-19T19:06:10.548Z,73.50
2022-08-19T19:08:39.066Z,73.65
2022-08-19T19:11:07.248Z,73.81
2022-08-19T19:13:38.615Z,74.20
2022-08-19T19:16:07.036Z,74.51
2022-08-19T19:18:34.974Z,75.11
2022-08-19T19:21:03.021Z,75.23
2022-08-19T19:23:31.589Z,75.37
2022-08-19T19:26:00.485Z,75.55
2022-08-19T19:28:29.343Z,75.61
2022-08-19T19:30:59.196Z,75.73
2022-08-19T19:33:27.739Z,75.75
2022-08-19T19:35:56.421Z,76.22
2022-08-19T19:38:24.697Z,76.56
2022-08-19T19:40:52.733Z,76.79
2022-08-19T19:43:21.327Z,76.59
2022-08-19T19:45:50.135Z,76.80
2022-08-19T19:48:19.685Z,76.90
2022-08-19T19:50:53.937Z,77.21
2022-08-19T19:53:24.972Z,77.41
2022-08-19T19:55:55.013Z,77.75
2022-08-19T19:58:28.519Z,78.04
2022-08-19T20:00:57.765Z,78.44
2022-08-19T20:03:27.486Z,78.61
2022-08-19T20:05:59.344Z,78.63
2022-08-19T20:08:45.235Z,78.64
2022-08-19T20:11:17.878Z,78.99
2022-08-19T20:13:45.825Z,79.36
2022-08-19T20:16:13.921Z,79.52
2022-08-19T20:18:43.771Z,79.72
2022-08-19T20:21:12.430Z,80.05
2022-08-19T20:23:40.412Z,80.21
2022-08-19T20:26:13.716Z,80.53
2022-08-19T20:29:02.167Z,80.91
2022-08-19T20:31:54.323Z,81.19
2022-08-19T20:34:28.769Z,81.90
2022-08-19T20:36:57.006Z,82.26
2022-08-19T20:39:24.977Z,82.61
2022-08-19T20:41:52.959Z,82.99
2022-08-19T20:44:21.531Z,83.38
2022-08-19T20:46:54.770Z,83.55
2022-08-19T20:49:27.069Z,83.94
2022-08-19T20:51:58.435Z,84.02
2022-08-19T20:54:27.129Z,83.70
2022-08-19T20:56:55.710Z,83.98
2022-08-19T20:59:23.983Z,84.05
2022-08-19T21:01:52.445Z,83.93
2022-08-19T21:04:20.440Z,83.77
2022-08-19T21:06:48.401Z,84.17
2022-08-19T21:09:18.063Z,84.48
2022-08-19T21:11:46.207Z,84.62
2022-08-19T21:14:14.420Z,84.59
2022-08-19T21:16:42.489Z,84.72
2022-08-19T21:19:10.448Z,85.00
2022-08-19T21:21:38.471Z,85.27
2022-08-19T21:24:06.847Z,85.42
2022-08-19T21:26:36.291Z,85.55
2022-08-19T21:29:04.781Z,86.18
2022-08-19T21:31:32.802Z,86.38
2022-08-19T21:34:00.976Z,86.04
2022-08-19T21:36:29.170Z,86.39
2022-08-19T21:38:57.484Z,86.37
2022-08-19T21:41:25.755Z,86.77
2022-08-19T21:43:55.306Z,86.59
2022-08-19T21:46:23.649Z,86.50
2022-08-19T21:48:51.563Z,86.92
2022-08-19T21:51:19.613Z,86.90
2022-08-19T21:53:49.295Z,87.18
2022-08-19T21:56:21.055Z,87.31
2022-08-19T21:58:49.469Z,87.51
2022-08-19T22:01:19.071Z,87.50
2022-08-19T22:03:46.990Z,87.83
2022-08-19T22:06:16.445Z,88.72
2022-08-19T22:08:44.967Z,88.59
2022-08-19T22:11:13.192Z,88.69
2022-08-19T22:13:41.455Z,88.54
2022-08-19T22:16:11.109Z,88.31
2022-08-19T22:18:40.612Z,87.84
2022-08-19T22:21:11.855Z,87.51
2022-08-19T22:23:42.015Z,87.14
2022-08-19T22:26:10.798Z,86.86
2022-08-19T22:28:39.604Z,86.94
2022-08-19T22:31:07.971Z,86.55
2022-08-19T22:33:37.526Z,86.69
2022-08-19T22:36:08.807Z,87.31
2022-08-19T22:38:37.559Z,87.53
2022-08-19T22:41:07.979Z,87.35
2022-08-19T22:43:36.948Z,88.03
2022-08-19T22:46:06.497Z,87.94
2022-08-19T22:48:45.103Z,88.02
2022-08-19T22:51:31.816Z,87.53
2022-08-19T22:54:00.709Z,87.28
2022-08-19T22:56:30.465Z,87.14
2022-08-19T22:58:58.559Z,87.22
2022-08-19T23:01:30.614Z,87.45
2022-08-19T23:04:00.058Z,87.16
2022-08-19T23:06:35.146Z,87.45
2022-08-19T23:09:06.756Z,87.55
2022-08-19T23:11:38.121Z,87.77
2022-08-19T23:14:11.139Z,88.01
2022-08-19T23:16:39.405Z,88.27
2022-08-19T23:19:09.871Z,88.25
2022-08-19T23:21:39.394Z,87.86
2022-08-19T23:24:07.575Z,87.33
2022-08-19T23:26:36.186Z,87.02
2022-08-19T23:29:22.678Z,87.22
2022-08-19T23:31:50.837Z,86.96
2022-08-19T23:34:18.736Z,86.75
2022-08-19T23:36:48.540Z,85.96
2022-08-19T23:39:16.583Z,85.48
2022-08-19T23:41:44.615Z,85.14
2022-08-19T23:44:14.426Z,84.79
2022-08-19T23:46:55.073Z,84.59
2022-08-19T23:49:24.266Z,83.71
2022-08-19T23:51:54.597Z,83.57
2022-08-19T23:54:22.640Z,82.93
2022-08-19T23:57:02.382Z,82.00
2022-08-19T23:59:41.523Z,81.55
